createdAt,value
2018-04-16T00:00:46.136Z,13.99
2018-04-16T00:01:51.655Z,14.09
2018-04-16T00:02:57.167Z,14.01
2018-04-16T00:04:02.680Z,14.01
2018-04-16T00:05:08.197Z,14.13
2018-04-16T00:06:13.714Z,14.02
2018-04-16T00:07:19.228Z,13.99
2018-04-16T00:08:24.740Z,14.09
2018-04-16T00:09:30.254Z,13.96
2018-04-16T00:10:35.770Z,14.12
2018-04-16T00:11:41.287Z,14.04
2018-04-16T00:12:46.797Z,13.98
2018-04-16T00:13:52.308Z,14.07
2018-04-16T00:14:57.815Z,14.10
2018-04-16T00:16:03.334Z,14.04
2018-04-16T00:17:08.846Z,13.99
2018-04-16T00:18:14.361Z,13.98
2018-04-16T00:19:19.885Z,14.02
2018-04-16T00:20:25.385Z,14.02
2018-04-16T00:21:30.900Z,14.06
2018-04-16T00:22:36.419Z,13.94
2018-04-16T00:23:41.933Z,13.98
2018-04-16T00:24:47.440Z,13.92
2018-04-16T00:25:52.953Z,13.91
2018-04-16T00:26:58.471Z,13.88
2018-04-16T00:28:03.987Z,13.89
2018-04-16T00:29:09.505Z,13.89
2018-04-16T00:30:15.110Z,13.91
2018-04-16T00:31:20.523Z,13.84
2018-04-16T00:32:26.040Z,13.87
2018-04-16T00:33:31.554Z,13.87
2018-04-16T00:34:37.067Z,13.81
2018-04-16T00:35:42.582Z,13.81
2018-04-16T00:36:48.100Z,13.87
2018-04-16T00:37:53.609Z,13.87
2018-04-16T00:38:59.121Z,13.84
2018-04-16T00:40:04.637Z,13.81
2018-04-16T00:41:10.144Z,13.73
2018-04-16T00:42:15.659Z,13.74
2018-04-16T00:43:21.184Z,13.70
2018-04-16T00:44:26.685Z,13.74
2018-04-16T00:45:32.205Z,13.74
2018-04-16T00:46:37.717Z,13.62
2018-04-16T00:47:43.231Z,13.61
2018-04-16T00:48:48.743Z,13.63
2018-04-16T00:49:54.254Z,13.58
2018-04-16T00:50:59.768Z,13.59
2018-04-16T00:52:05.293Z,13.55
2018-04-16T00:53:10.854Z,13.59
2018-04-16T00:54:16.317Z,13.49
2018-04-16T00:55:21.825Z,13.55
2018-04-16T00:56:27.339Z,13.51
2018-04-16T00:57:32.851Z,13.56
2018-04-16T00:58:38.371Z,13.54
2018-04-16T00:59:43.879Z,13.43
2018-04-16T01:00:49.398Z,13.44
2018-04-16T01:01:54.907Z,13.44
2018-04-16T01:03:00.417Z,13.46
2018-04-16T01:04:05.936Z,13.41
2018-04-16T01:05:11.497Z,13.40
2018-04-16T01:06:17.059Z,13.43
2018-04-16T01:07:22.471Z,13.43
2018-04-16T01:08:27.987Z,13.27
2018-04-16T01:09:33.503Z,13.25
2018-04-16T01:10:39.012Z,13.44
2018-04-16T01:11:44.526Z,13.49
2018-04-16T01:12:50.049Z,13.40
2018-04-16T01:13:55.553Z,13.27
2018-04-16T01:15:01.068Z,13.32
2018-04-16T01:16:06.580Z,13.46
2018-04-16T01:17:12.094Z,13.36
2018-04-16T01:18:17.605Z,13.40
2018-04-16T01:19:23.119Z,13.38
2018-04-16T01:20:28.642Z,13.38
2018-04-16T01:21:34.147Z,13.27
2018-04-16T01:22:39.679Z,13.27
2018-04-16T01:23:45.179Z,13.36
2018-04-16T01:24:50.688Z,13.37
2018-04-16T01:25:56.201Z,13.41
2018-04-16T01:27:01.712Z,13.33
2018-04-16T01:28:07.228Z,13.29
2018-04-16T01:29:12.746Z,13.43
2018-04-16T01:30:18.260Z,13.41
2018-04-16T01:31:23.767Z,13.44
2018-04-16T01:32:29.284Z,13.44
2018-04-16T01:33:34.796Z,13.40
2018-04-16T01:34:40.309Z,13.36
2018-04-16T01:35:45.837Z,13.32
2018-04-16T01:36:51.431Z,13.36
2018-04-16T01:37:56.849Z,13.41
2018-04-16T01:39:02.367Z,13.40
2018-04-16T01:40:07.879Z,13.44
2018-04-16T01:41:13.392Z,13.44
2018-04-16T01:42:18.904Z,13.41
2018-04-16T01:43:24.418Z,13.49
2018-04-16T01:44:29.931Z,13.47
2018-04-16T01:45:35.456Z,13.47
2018-04-16T01:46:40.959Z,13.49
2018-04-16T01:47:46.473Z,13.43
2018-04-16T01:48:51.983Z,13.47
2018-04-16T01:49:57.505Z,13.43
2018-04-16T01:51:03.009Z,13.43
2018-04-16T01:52:08.522Z,13.38
2018-04-16T01:53:14.039Z,13.41
2018-04-16T01:54:19.555Z,13.41
2018-04-16T01:55:25.067Z,13.30
2018-04-16T01:56:30.577Z,13.27
2018-04-16T01:57:36.093Z,13.37
2018-04-16T01:58:41.604Z,13.38
2018-04-16T01:59:47.122Z,13.43
2018-04-16T02:00:52.635Z,13.43
2018-04-16T02:01:58.149Z,13.22
2018-04-16T02:03:03.662Z,13.37
2018-04-16T02:04:09.177Z,13.30
2018-04-16T02:05:14.684Z,13.36
2018-04-16T02:06:20.237Z,13.41
2018-04-16T02:07:25.708Z,13.43
2018-04-16T02:08:31.228Z,13.40
2018-04-16T02:09:36.742Z,13.27
2018-04-16T02:10:42.254Z,13.25
2018-04-16T02:11:47.765Z,13.30
2018-04-16T02:12:53.278Z,13.18
2018-04-16T02:13:58.791Z,13.21
2018-04-16T02:15:04.308Z,13.33
2018-04-16T02:16:09.817Z,13.33
2018-04-16T02:17:15.327Z,13.25
2018-04-16T02:18:20.848Z,13.33
2018-04-16T02:19:26.373Z,13.22
2018-04-16T02:20:31.875Z,13.25
2018-04-16T02:21:37.383Z,13.21
2018-04-16T02:22:42.896Z,13.21
2018-04-16T02:23:48.424Z,13.22
2018-04-16T02:24:53.928Z,13.24
2018-04-16T02:25:59.451Z,13.18
2018-04-16T02:27:04.958Z,13.15
2018-04-16T02:28:10.467Z,13.18
2018-04-16T02:29:15.979Z,13.09
2018-04-16T02:30:21.492Z,13.14
2018-04-16T02:31:27.003Z,13.11
2018-04-16T02:32:32.519Z,13.03
2018-04-16T02:33:38.029Z,13.04
2018-04-16T02:34:43.539Z,12.97
2018-04-16T02:35:49.061Z,12.95
2018-04-16T02:36:54.572Z,13.02
2018-04-16T02:38:00.085Z,12.93
2018-04-16T02:39:05.599Z,13.00
2018-04-16T02:40:11.112Z,12.88
2018-04-16T02:41:16.621Z,12.92
2018-04-16T02:42:22.134Z,12.87
2018-04-16T02:43:27.647Z,12.89
2018-04-16T02:44:33.168Z,12.84
2018-04-16T02:45:38.674Z,12.84
2018-04-16T02:46:44.311Z,12.85
2018-04-16T02:47:49.702Z,12.85
2018-04-16T02:48:55.218Z,12.81
2018-04-16T02:50:00.727Z,12.81
2018-04-16T02:51:06.240Z,12.82
2018-04-16T02:52:11.769Z,12.74
2018-04-16T02:53:17.265Z,12.75
2018-04-16T02:54:22.785Z,12.79
2018-04-16T02:55:28.300Z,12.74
2018-04-16T02:56:33.808Z,12.77
2018-04-16T02:57:39.318Z,12.69
2018-04-16T02:58:44.835Z,12.69
2018-04-16T02:59:50.346Z,12.69
2018-04-16T03:00:55.859Z,12.69
2018-04-16T03:02:01.372Z,12.70
2018-04-16T03:03:06.891Z,12.77
2018-04-16T03:04:12.404Z,12.77
2018-04-16T03:05:17.909Z,12.69
2018-04-16T03:06:23.421Z,12.70
2018-04-16T03:07:28.949Z,12.69
2018-04-16T03:08:34.447Z,12.67
2018-04-16T03:09:39.970Z,12.59
2018-04-16T03:10:45.480Z,12.60
2018-04-16T03:11:50.993Z,12.60
2018-04-16T03:12:56.499Z,12.59
2018-04-16T03:14:02.016Z,12.56
2018-04-16T03:15:07.527Z,12.57
2018-04-16T03:16:13.044Z,12.62
2018-04-16T03:17:18.554Z,12.59
2018-04-16T03:18:24.069Z,12.60
2018-04-16T03:19:29.579Z,12.59
2018-04-16T03:20:35.091Z,12.57
2018-04-16T03:21:40.604Z,12.62
2018-04-16T03:22:46.124Z,12.59
2018-04-16T03:23:51.635Z,12.57
2018-04-16T03:24:57.158Z,12.60
2018-04-16T03:26:02.659Z,12.59
2018-04-16T03:27:08.169Z,12.46
2018-04-16T03:28:13.718Z,12.59
2018-04-16T03:29:19.196Z,12.60
2018-04-16T03:30:24.714Z,12.56
2018-04-16T03:31:30.224Z,12.56
2018-04-16T03:32:35.734Z,12.59
2018-04-16T03:33:41.246Z,12.60
2018-04-16T03:34:46.761Z,12.59
2018-04-16T03:35:52.274Z,12.60
2018-04-16T03:36:57.782Z,12.79
2018-04-16T03:38:03.297Z,12.70
2018-04-16T03:39:08.811Z,12.71
2018-04-16T03:40:14.324Z,12.77
2018-04-16T03:41:19.838Z,12.77
2018-04-16T03:42:25.352Z,12.77
2018-04-16T03:43:30.867Z,12.78
2018-04-16T03:44:36.378Z,12.79
2018-04-16T03:45:41.897Z,12.78
2018-04-16T03:46:47.414Z,12.84
2018-04-16T03:47:52.918Z,12.84
2018-04-16T03:48:58.427Z,12.82
2018-04-16T03:50:03.944Z,12.79
2018-04-16T03:51:09.451Z,12.81
2018-04-16T03:52:14.968Z,12.82
2018-04-16T03:53:20.481Z,12.75
2018-04-16T03:54:25.995Z,12.82
2018-04-16T03:55:31.508Z,12.77
2018-04-16T03:56:37.024Z,12.77
2018-04-16T03:57:42.539Z,12.75
2018-04-16T03:58:48.047Z,12.79
2018-04-16T03:59:53.562Z,12.69
2018-04-16T04:00:59.071Z,12.74
2018-04-16T04:02:04.584Z,12.69
2018-04-16T04:03:10.101Z,12.67
2018-04-16T04:04:15.612Z,12.75
2018-04-16T04:05:21.129Z,12.82
2018-04-16T04:06:26.635Z,12.87
2018-04-16T04:07:32.154Z,12.87
2018-04-16T04:08:37.669Z,12.87
2018-04-16T04:09:43.180Z,12.89
2018-04-16T04:10:48.689Z,12.81
2018-04-16T04:11:54.200Z,12.84
2018-04-16T04:12:59.713Z,12.84
2018-04-16T04:14:05.228Z,12.78
2018-04-16T04:15:10.741Z,12.79
2018-04-16T04:16:16.255Z,12.70
2018-04-16T04:17:21.771Z,12.70
2018-04-16T04:18:27.280Z,12.57
2018-04-16T04:19:32.793Z,12.59
2018-04-16T04:20:38.303Z,12.57
2018-04-16T04:21:43.823Z,12.56
2018-04-16T04:22:49.334Z,12.51
2018-04-16T04:23:54.847Z,12.42
2018-04-16T04:25:00.399Z,12.38
2018-04-16T04:26:05.900Z,12.31
2018-04-16T04:27:11.381Z,12.30
2018-04-16T04:28:16.894Z,12.24
2018-04-16T04:29:22.406Z,12.30
2018-04-16T04:30:27.926Z,12.31
2018-04-16T04:31:33.437Z,12.31
2018-04-16T04:32:38.959Z,12.20
2018-04-16T04:33:44.460Z,12.29
2018-04-16T04:34:49.975Z,12.21
2018-04-16T04:35:55.495Z,12.27
2018-04-16T04:37:01.000Z,12.15
2018-04-16T04:38:06.517Z,12.12
2018-04-16T04:39:12.028Z,12.08
2018-04-16T04:40:17.548Z,12.09
2018-04-16T04:41:23.050Z,12.06
2018-04-16T04:42:28.564Z,12.08
2018-04-16T04:43:34.074Z,12.11
2018-04-16T04:44:39.587Z,12.06
2018-04-16T04:45:45.099Z,11.99
2018-04-16T04:46:50.616Z,12.09
2018-04-16T04:47:56.129Z,12.06
2018-04-16T04:49:01.652Z,11.93
2018-04-16T04:50:07.147Z,12.01
2018-04-16T04:51:12.660Z,11.93
2018-04-16T04:52:18.173Z,11.89
2018-04-16T04:53:23.684Z,11.90
2018-04-16T04:54:29.201Z,11.90
2018-04-16T04:55:34.722Z,11.99
2018-04-16T04:56:40.227Z,11.90
2018-04-16T04:57:45.741Z,11.93
2018-04-16T04:58:51.249Z,11.94
2018-04-16T04:59:56.765Z,11.96
2018-04-16T05:01:02.274Z,11.89
2018-04-16T05:02:07.788Z,11.93
2018-04-16T05:03:13.301Z,11.97
2018-04-16T05:04:18.813Z,11.90
2018-04-16T05:05:24.322Z,11.99
2018-04-16T05:06:29.896Z,11.93
2018-04-16T05:07:35.359Z,11.85
2018-04-16T05:08:40.872Z,11.94
2018-04-16T05:09:46.378Z,11.94
2018-04-16T05:10:52.009Z,11.93
2018-04-16T05:11:57.404Z,11.86
2018-04-16T05:13:02.993Z,11.80
2018-04-16T05:14:08.431Z,11.80
2018-04-16T05:15:13.949Z,11.90
2018-04-16T05:16:19.474Z,11.90
2018-04-16T05:17:24.963Z,11.94
2018-04-16T05:18:30.476Z,11.86
2018-04-16T05:19:35.990Z,11.89
2018-04-16T05:20:41.503Z,11.96
2018-04-16T05:21:47.010Z,11.99
2018-04-16T05:22:52.520Z,11.87
2018-04-16T05:23:58.038Z,12.01
2018-04-16T05:25:03.549Z,12.01
2018-04-16T05:26:09.059Z,12.05
2018-04-16T05:27:14.568Z,12.02
2018-04-16T05:28:20.090Z,12.11
2018-04-16T05:29:25.595Z,12.11
2018-04-16T05:30:31.110Z,12.12
2018-04-16T05:31:36.630Z,12.13
2018-04-16T05:32:42.129Z,12.23
2018-04-16T05:33:47.647Z,12.23
2018-04-16T05:34:53.156Z,12.29
2018-04-16T05:35:58.670Z,12.27
2018-04-16T05:37:04.196Z,12.30
2018-04-16T05:38:09.698Z,12.33
2018-04-16T05:39:15.204Z,12.44
2018-04-16T05:40:20.720Z,12.41
2018-04-16T05:41:26.230Z,12.56
2018-04-16T05:42:31.779Z,12.60
2018-04-16T05:43:37.258Z,12.60
2018-04-16T05:44:42.769Z,12.59
2018-04-16T05:45:48.279Z,12.78
2018-04-16T05:46:53.799Z,12.71
2018-04-16T05:47:59.308Z,12.77
2018-04-16T05:49:04.821Z,12.92
2018-04-16T05:50:10.332Z,12.87
2018-04-16T05:51:15.870Z,12.95
2018-04-16T05:52:21.364Z,12.96
2018-04-16T05:53:26.877Z,12.99
2018-04-16T05:54:32.463Z,13.02
2018-04-16T05:55:37.896Z,13.11
2018-04-16T05:56:43.410Z,13.15
2018-04-16T05:57:48.926Z,13.29
2018-04-16T05:58:54.436Z,13.21
2018-04-16T05:59:59.949Z,13.27
2018-04-16T06:01:05.462Z,13.24
2018-04-16T06:02:10.976Z,13.29
2018-04-16T06:03:16.488Z,13.36
2018-04-16T06:04:21.998Z,13.38
2018-04-16T06:05:27.514Z,13.43
2018-04-16T06:06:33.046Z,13.47
2018-04-16T06:07:38.550Z,13.56
2018-04-16T06:08:44.066Z,13.56
2018-04-16T06:09:49.564Z,13.47
2018-04-16T06:10:55.079Z,13.56
2018-04-16T06:12:00.590Z,13.59
2018-04-16T06:13:06.106Z,13.62
2018-04-16T06:14:11.616Z,13.63
2018-04-16T06:15:17.143Z,13.73
2018-04-16T06:16:22.643Z,13.70
2018-04-16T06:17:28.157Z,13.79
2018-04-16T06:18:33.670Z,13.79
2018-04-16T06:19:39.193Z,13.87
2018-04-16T06:20:44.700Z,13.94
2018-04-16T06:21:50.209Z,13.88
2018-04-16T06:22:55.729Z,13.96
2018-04-16T06:24:01.288Z,13.99
2018-04-16T06:25:06.752Z,14.02
2018-04-16T06:26:12.267Z,14.02
2018-04-16T06:27:17.822Z,14.12
2018-04-16T06:28:23.296Z,14.16
2018-04-16T06:29:28.810Z,14.16
2018-04-16T06:30:34.318Z,14.27
2018-04-16T06:31:39.832Z,14.32
2018-04-16T06:32:45.345Z,14.35
2018-04-16T06:33:50.872Z,14.35
2018-04-16T06:34:56.377Z,14.37
2018-04-16T06:36:01.887Z,14.35
2018-04-16T06:37:07.402Z,14.34
2018-04-16T06:38:12.912Z,14.42
2018-04-16T06:39:18.502Z,14.42
2018-04-16T06:40:23.942Z,14.49
2018-04-16T06:41:29.458Z,14.49
2018-04-16T06:42:34.969Z,14.53
2018-04-16T06:43:40.520Z,14.56
2018-04-16T06:44:45.999Z,14.60
2018-04-16T06:45:51.510Z,14.62
2018-04-16T06:46:57.028Z,14.62
2018-04-16T06:48:02.550Z,14.68
2018-04-16T06:49:08.056Z,14.74
2018-04-16T06:50:13.566Z,14.84
2018-04-16T06:51:19.080Z,14.81
2018-04-16T06:52:24.598Z,14.90
2018-04-16T06:53:30.110Z,14.98
2018-04-16T06:54:35.623Z,14.93
2018-04-16T06:55:41.139Z,15.02
2018-04-16T06:56:46.656Z,15.03
2018-04-16T06:57:52.164Z,15.15
2018-04-16T06:58:57.679Z,15.24
2018-04-16T07:00:03.247Z,15.23
2018-04-16T07:01:08.722Z,15.35
2018-04-16T07:02:14.231Z,15.28
2018-04-16T07:03:19.736Z,15.45
2018-04-16T07:04:25.270Z,15.46
2018-04-16T07:05:30.766Z,15.46
2018-04-16T07:06:36.276Z,15.57
2018-04-16T07:07:41.796Z,15.56
2018-04-16T07:08:47.310Z,15.70
2018-04-16T07:09:52.821Z,15.74
2018-04-16T07:10:58.337Z,15.72
2018-04-16T07:12:03.846Z,15.85
2018-04-16T07:13:09.369Z,15.88
2018-04-16T07:14:14.886Z,15.99
2018-04-16T07:15:20.395Z,15.94
2018-04-16T07:16:25.914Z,15.99
2018-04-16T07:17:31.460Z,16.00
2018-04-16T07:18:36.937Z,16.06
2018-04-16T07:19:42.450Z,16.16
2018-04-16T07:20:47.964Z,16.18
2018-04-16T07:21:53.490Z,16.16
2018-04-16T07:22:58.995Z,16.03
2018-04-16T07:24:04.508Z,16.07
2018-04-16T07:25:10.025Z,16.18
2018-04-16T07:26:15.540Z,16.18
2018-04-16T07:27:21.104Z,16.07
2018-04-16T07:28:26.567Z,16.14
2018-04-16T07:29:32.092Z,16.14
2018-04-16T07:30:37.602Z,16.23
2018-04-16T07:31:43.116Z,16.11
2018-04-16T07:32:48.624Z,16.31
2018-04-16T07:33:54.142Z,16.37
2018-04-16T07:34:59.662Z,16.38
2018-04-16T07:36:05.183Z,16.44
2018-04-16T07:37:10.687Z,16.49
2018-04-16T07:38:16.200Z,16.52
2018-04-16T07:39:21.715Z,16.56
2018-04-16T07:40:27.231Z,16.67
2018-04-16T07:41:32.746Z,16.73
2018-04-16T07:42:38.272Z,16.71
2018-04-16T07:43:43.831Z,16.68
2018-04-16T07:44:49.301Z,16.70
2018-04-16T07:45:54.807Z,16.73
2018-04-16T07:47:00.328Z,16.81
2018-04-16T07:48:05.834Z,16.85
2018-04-16T07:49:11.357Z,16.86
2018-04-16T07:50:16.872Z,16.93
2018-04-16T07:51:22.380Z,16.81
2018-04-16T07:52:27.896Z,16.89
2018-04-16T07:53:33.414Z,16.90
2018-04-16T07:54:38.927Z,16.83
2018-04-16T07:55:44.453Z,16.95
2018-04-16T07:56:49.957Z,16.86
2018-04-16T07:57:55.480Z,16.95
2018-04-16T07:59:00.998Z,16.98
2018-04-16T08:00:06.509Z,16.98
2018-04-16T08:01:12.022Z,16.96
2018-04-16T08:02:17.539Z,17.03
2018-04-16T08:03:23.056Z,17.10
2018-04-16T08:04:28.568Z,17.14
2018-04-16T08:05:34.090Z,17.18
2018-04-16T08:06:39.638Z,17.22
2018-04-16T08:07:45.144Z,17.26
2018-04-16T08:08:50.626Z,17.28
2018-04-16T08:09:56.155Z,17.35
2018-04-16T08:11:01.658Z,17.36
2018-04-16T08:12:07.178Z,17.36
2018-04-16T08:13:12.689Z,17.43
2018-04-16T08:14:18.202Z,17.53
2018-04-16T08:15:23.721Z,17.55
2018-04-16T08:16:29.235Z,17.67
2018-04-16T08:17:34.753Z,17.71
2018-04-16T08:18:40.267Z,17.71
2018-04-16T08:19:45.790Z,17.79
2018-04-16T08:20:51.298Z,17.78
2018-04-16T08:21:56.824Z,17.88
2018-04-16T08:23:02.327Z,17.84
2018-04-16T08:24:07.846Z,17.94
2018-04-16T08:25:13.375Z,17.99
2018-04-16T08:26:18.887Z,17.92
2018-04-16T08:27:24.409Z,17.99
2018-04-16T08:28:29.924Z,17.99
2018-04-16T08:29:35.433Z,17.97
2018-04-16T08:30:40.947Z,18.02
2018-04-16T08:31:46.464Z,17.97
2018-04-16T08:32:51.976Z,18.07
2018-04-16T08:33:57.496Z,17.99
2018-04-16T08:35:03.016Z,18.15
2018-04-16T08:36:08.527Z,18.13
2018-04-16T08:37:14.041Z,18.29
2018-04-16T08:38:19.557Z,18.27
2018-04-16T08:39:25.068Z,18.29
2018-04-16T08:40:30.582Z,18.43
2018-04-16T08:41:36.109Z,18.46
2018-04-16T08:42:41.620Z,18.55
2018-04-16T08:43:47.163Z,18.55
2018-04-16T08:44:52.653Z,18.64
2018-04-16T08:45:58.191Z,18.62
2018-04-16T08:47:03.685Z,18.76
2018-04-16T08:48:09.197Z,18.76
2018-04-16T08:49:14.714Z,18.79
2018-04-16T08:50:20.242Z,18.83
2018-04-16T08:51:25.749Z,18.90
2018-04-16T08:52:31.321Z,18.94
2018-04-16T08:53:36.791Z,19.10
2018-04-16T08:54:42.294Z,19.21
2018-04-16T08:55:47.813Z,19.36
2018-04-16T08:56:53.328Z,19.35
2018-04-16T08:57:58.848Z,19.43
2018-04-16T08:59:04.374Z,19.46
2018-04-16T09:00:09.883Z,19.51
2018-04-16T09:01:15.405Z,19.60
2018-04-16T09:02:20.911Z,19.61
2018-04-16T09:03:26.437Z,19.63
2018-04-16T09:04:31.951Z,19.79
2018-04-16T09:05:37.465Z,19.79
2018-04-16T09:06:42.986Z,19.86
2018-04-16T09:07:48.602Z,19.88
2018-04-16T09:08:54.026Z,19.95
2018-04-16T09:09:59.531Z,20.02
2018-04-16T09:11:05.048Z,19.98
2018-04-16T09:12:10.572Z,19.91
2018-04-16T09:13:16.090Z,19.98
2018-04-16T09:14:21.602Z,19.94
2018-04-16T09:15:27.115Z,19.97
2018-04-16T09:16:32.633Z,19.95
2018-04-16T09:17:38.150Z,19.90
2018-04-16T09:18:43.671Z,19.84
2018-04-16T09:19:49.196Z,19.80
2018-04-16T09:20:54.704Z,19.78
2018-04-16T09:22:00.231Z,19.83
2018-04-16T09:23:05.742Z,19.66
2018-04-16T09:24:11.257Z,19.68
2018-04-16T09:25:16.778Z,19.65
2018-04-16T09:26:22.288Z,19.57
2018-04-16T09:27:27.817Z,19.48
2018-04-16T09:28:33.328Z,19.46
2018-04-16T09:29:38.838Z,19.47
2018-04-16T09:30:44.361Z,19.33
2018-04-16T09:31:49.875Z,19.43
2018-04-16T09:32:55.394Z,19.35
2018-04-16T09:34:00.908Z,19.38
2018-04-16T09:35:06.426Z,19.40
2018-04-16T09:36:11.947Z,19.38
2018-04-16T09:37:17.458Z,19.47
2018-04-16T09:38:22.981Z,19.43
2018-04-16T09:39:28.500Z,19.42
2018-04-16T09:40:34.011Z,19.51
2018-04-16T09:41:39.527Z,19.57
2018-04-16T09:42:45.045Z,19.66
2018-04-16T09:43:50.568Z,19.78
2018-04-16T09:44:56.086Z,19.79
2018-04-16T09:46:01.595Z,19.95
2018-04-16T09:47:07.113Z,19.93
2018-04-16T09:48:12.633Z,19.93
2018-04-16T09:49:18.148Z,19.98
2018-04-16T09:50:23.701Z,19.98
2018-04-16T09:51:29.183Z,20.16
2018-04-16T09:52:34.698Z,20.15
2018-04-16T09:53:40.218Z,20.16
2018-04-16T09:54:45.736Z,20.21
2018-04-16T09:55:51.267Z,20.27
2018-04-16T09:56:56.777Z,20.30
2018-04-16T09:58:02.289Z,20.33
2018-04-16T09:59:07.801Z,20.38
2018-04-16T10:00:13.399Z,20.30
2018-04-16T10:01:18.839Z,20.27
2018-04-16T10:02:24.354Z,20.30
2018-04-16T10:03:29.874Z,20.08
2018-04-16T10:04:35.388Z,20.00
2018-04-16T10:05:41.034Z,19.97
2018-04-16T10:06:46.428Z,19.93
2018-04-16T10:07:51.948Z,19.98
2018-04-16T10:08:57.464Z,19.88
2018-04-16T10:10:02.975Z,19.97
2018-04-16T10:11:08.503Z,19.94
2018-04-16T10:12:14.010Z,19.94
2018-04-16T10:13:19.535Z,19.87
2018-04-16T10:14:25.046Z,20.00
2018-04-16T10:15:30.572Z,19.87
2018-04-16T10:16:36.080Z,19.88
2018-04-16T10:17:41.597Z,19.79
2018-04-16T10:18:47.121Z,19.83
2018-04-16T10:19:52.642Z,19.87
2018-04-16T10:20:58.150Z,19.93
2018-04-16T10:22:03.669Z,19.88
2018-04-16T10:23:09.185Z,19.94
2018-04-16T10:24:14.704Z,19.90
2018-04-16T10:25:20.217Z,19.95
2018-04-16T10:26:25.789Z,19.93
2018-04-16T10:27:31.255Z,19.94
2018-04-16T10:28:36.770Z,19.97
2018-04-16T10:29:42.293Z,20.02
2018-04-16T10:30:47.810Z,19.98
2018-04-16T10:31:53.327Z,19.98
2018-04-16T10:32:58.850Z,19.98
2018-04-16T10:34:04.372Z,20.05
2018-04-16T10:35:09.877Z,19.94
2018-04-16T10:36:15.399Z,19.91
2018-04-16T10:37:20.916Z,19.93
2018-04-16T10:38:26.510Z,20.00
2018-04-16T10:39:31.951Z,20.03
2018-04-16T10:40:37.474Z,20.00
2018-04-16T10:41:42.996Z,20.15
2018-04-16T10:42:48.502Z,20.12
2018-04-16T10:43:54.021Z,20.18
2018-04-16T10:44:59.539Z,20.15
2018-04-16T10:46:05.052Z,20.30
2018-04-16T10:47:10.577Z,20.23
2018-04-16T10:48:16.089Z,20.33
2018-04-16T10:49:21.626Z,20.35
2018-04-16T10:50:27.124Z,20.33
2018-04-16T10:51:32.659Z,20.39
2018-04-16T10:52:38.157Z,20.43
2018-04-16T10:53:43.680Z,20.51
2018-04-16T10:54:49.201Z,20.56
2018-04-16T10:55:54.713Z,20.51
2018-04-16T10:57:00.234Z,20.43
2018-04-16T10:58:05.759Z,20.33
2018-04-16T10:59:11.305Z,20.42
2018-04-16T11:00:16.781Z,20.34
2018-04-16T11:01:22.299Z,20.28
2018-04-16T11:02:27.818Z,20.30
2018-04-16T11:03:33.339Z,20.27
2018-04-16T11:04:38.852Z,20.23
2018-04-16T11:05:44.374Z,20.35
2018-04-16T11:06:49.889Z,20.38
2018-04-16T11:07:55.406Z,20.43
2018-04-16T11:09:00.935Z,20.51
2018-04-16T11:10:06.442Z,20.58
2018-04-16T11:11:11.961Z,20.64
2018-04-16T11:12:17.476Z,20.62
2018-04-16T11:13:22.998Z,20.65
2018-04-16T11:14:28.535Z,20.65
2018-04-16T11:15:34.038Z,20.56
2018-04-16T11:16:39.553Z,20.51
2018-04-16T11:17:45.082Z,20.62
2018-04-16T11:18:50.585Z,20.65
2018-04-16T11:19:56.101Z,20.77
2018-04-16T11:21:01.624Z,20.99
2018-04-16T11:22:07.136Z,21.06
2018-04-16T11:23:12.659Z,21.11
2018-04-16T11:24:18.192Z,21.11
2018-04-16T11:25:23.697Z,21.19
2018-04-16T11:26:29.251Z,21.13
2018-04-16T11:27:34.729Z,21.08
2018-04-16T11:28:40.249Z,20.98
2018-04-16T11:29:45.765Z,20.87
2018-04-16T11:30:51.282Z,20.86
2018-04-16T11:31:56.804Z,20.77
2018-04-16T11:33:02.328Z,20.76
2018-04-16T11:34:07.844Z,20.72
2018-04-16T11:35:13.363Z,20.76
2018-04-16T11:36:18.869Z,20.91
2018-04-16T11:37:24.388Z,21.02
2018-04-16T11:38:30.001Z,21.17
2018-04-16T11:39:35.428Z,21.30
2018-04-16T11:40:40.948Z,21.24
2018-04-16T11:41:46.471Z,21.32
2018-04-16T11:42:51.983Z,21.42
2018-04-16T11:43:57.498Z,21.46
2018-04-16T11:45:03.019Z,21.48
2018-04-16T11:46:08.534Z,21.36
2018-04-16T11:47:14.058Z,21.48
2018-04-16T11:48:19.579Z,21.46
2018-04-16T11:49:25.103Z,21.34
2018-04-16T11:50:30.611Z,21.42
2018-04-16T11:51:36.129Z,21.36
2018-04-16T11:52:41.648Z,21.30
2018-04-16T11:53:47.169Z,21.39
2018-04-16T11:54:52.689Z,21.27
2018-04-16T11:55:58.210Z,21.24
2018-04-16T11:57:03.723Z,21.17
2018-04-16T11:58:09.237Z,21.26
2018-04-16T11:59:14.757Z,21.23
2018-04-16T12:00:20.275Z,21.30
2018-04-16T12:01:25.802Z,21.20
2018-04-16T12:02:31.314Z,21.30
2018-04-16T12:03:36.833Z,21.30
2018-04-16T12:04:42.392Z,21.42
2018-04-16T12:05:47.866Z,21.21
2018-04-16T12:06:53.394Z,21.35
2018-04-16T12:07:58.904Z,21.20
2018-04-16T12:09:04.425Z,21.14
2018-04-16T12:10:09.948Z,21.13
2018-04-16T12:11:15.463Z,21.20
2018-04-16T12:12:21.003Z,21.09
2018-04-16T12:13:26.518Z,21.16
2018-04-16T12:14:32.023Z,21.13
2018-04-16T12:15:37.540Z,21.06
2018-04-16T12:16:43.093Z,20.99
2018-04-16T12:17:48.571Z,21.02
2018-04-16T12:18:54.088Z,20.98
2018-04-16T12:19:59.612Z,20.91
2018-04-16T12:21:05.129Z,20.87
2018-04-16T12:22:10.641Z,20.87
2018-04-16T12:23:16.172Z,20.90
2018-04-16T12:24:21.692Z,20.89
2018-04-16T12:25:27.195Z,20.95
2018-04-16T12:26:32.715Z,20.90
2018-04-16T12:27:38.250Z,21.05
2018-04-16T12:28:43.751Z,21.13
2018-04-16T12:29:49.278Z,21.17
2018-04-16T12:30:54.791Z,21.32
2018-04-16T12:32:00.309Z,21.39
2018-04-16T12:33:05.890Z,21.30
2018-04-16T12:34:11.347Z,21.44
2018-04-16T12:35:16.868Z,21.53
2018-04-16T12:36:22.388Z,21.61
2018-04-16T12:37:27.899Z,21.53
2018-04-16T12:38:33.414Z,21.59
2018-04-16T12:39:38.960Z,21.60
2018-04-16T12:40:44.455Z,21.57
2018-04-16T12:41:49.976Z,21.71
2018-04-16T12:42:55.502Z,21.67
2018-04-16T12:44:01.008Z,21.63
2018-04-16T12:45:06.532Z,21.51
2018-04-16T12:46:12.047Z,21.59
2018-04-16T12:47:17.569Z,21.60
2018-04-16T12:48:23.083Z,21.54
2018-04-16T12:49:28.602Z,21.56
2018-04-16T12:50:34.133Z,21.53
2018-04-16T12:51:39.659Z,21.45
2018-04-16T12:52:45.162Z,21.54
2018-04-16T12:53:50.676Z,21.44
2018-04-16T12:54:56.195Z,21.56
2018-04-16T12:56:01.716Z,21.60
2018-04-16T12:57:07.233Z,21.69
2018-04-16T12:58:12.761Z,21.78
2018-04-16T12:59:18.268Z,21.85
2018-04-16T13:00:23.796Z,22.01
2018-04-16T13:01:29.333Z,22.09
2018-04-16T13:02:34.836Z,22.10
2018-04-16T13:03:40.349Z,22.17
2018-04-16T13:04:45.860Z,22.31
2018-04-16T13:05:51.379Z,22.41
2018-04-16T13:06:56.899Z,22.43
2018-04-16T13:08:02.430Z,22.57
2018-04-16T13:09:07.941Z,22.59
2018-04-16T13:10:13.461Z,22.57
2018-04-16T13:11:18.984Z,22.68
2018-04-16T13:12:24.498Z,22.74
2018-04-16T13:13:30.022Z,22.68
2018-04-16T13:14:35.534Z,22.87
2018-04-16T13:15:41.052Z,22.75
2018-04-16T13:16:46.567Z,22.89
2018-04-16T13:17:52.088Z,22.97
2018-04-16T13:18:57.619Z,22.99
2018-04-16T13:20:03.160Z,23.09
2018-04-16T13:21:08.649Z,23.20
2018-04-16T13:22:14.170Z,23.14
2018-04-16T13:23:19.700Z,23.24
2018-04-16T13:24:25.198Z,23.31
2018-04-16T13:25:30.720Z,23.34
2018-04-16T13:26:36.241Z,23.45
2018-04-16T13:27:41.756Z,23.42
2018-04-16T13:28:47.279Z,23.53
2018-04-16T13:29:52.798Z,23.65
2018-04-16T13:30:58.316Z,23.72
2018-04-16T13:32:03.842Z,23.64
2018-04-16T13:33:09.356Z,23.62
2018-04-16T13:34:14.877Z,23.55
2018-04-16T13:35:20.399Z,23.43
2018-04-16T13:36:25.971Z,23.47
2018-04-16T13:37:31.438Z,23.42
2018-04-16T13:38:36.958Z,23.47
2018-04-16T13:39:42.488Z,23.40
2018-04-16T13:40:47.994Z,23.52
2018-04-16T13:41:53.520Z,23.47
2018-04-16T13:42:59.066Z,23.52
2018-04-16T13:44:04.553Z,23.58
2018-04-16T13:45:10.074Z,23.68
2018-04-16T13:46:15.591Z,23.68
2018-04-16T13:47:21.113Z,23.75
2018-04-16T13:48:26.640Z,23.70
2018-04-16T13:49:32.146Z,23.70
2018-04-16T13:50:37.690Z,23.62
2018-04-16T13:51:43.187Z,23.55
2018-04-16T13:52:48.713Z,23.62
2018-04-16T13:53:54.227Z,23.49
2018-04-16T13:54:59.786Z,23.49
2018-04-16T13:56:05.530Z,23.47
2018-04-16T13:57:10.793Z,23.47
2018-04-16T13:58:16.311Z,23.40
2018-04-16T13:59:21.824Z,23.45
2018-04-16T14:00:27.351Z,23.35
2018-04-16T14:01:33.025Z,23.40
2018-04-16T14:02:38.383Z,23.42
2018-04-16T14:03:43.907Z,23.23